sensor_id;sensor_type;location;lat;lon;timestamp;P1;durP1;ratioP1;P2;durP2;ratioP2
8716;SDS011;4395;48.554;8.820;2023-04-06T00:01:31;11.43;;;8.20;;
8716;SDS011;4395;48.554;8.820;2023-04-06T00:03:34;10.45;;;8.52;;
8716;SDS011;4395;48.554;8.820;2023-04-06T00:05:37;12.30;;;8.45;;
8716;SDS011;4395;48.554;8.820;2023-04-06T00:07:40;13.75;;;9.95;;
8716;SDS011;4395;48.554;8.820;2023-04-06T00:09:43;15.13;;;12.23;;
8716;SDS011;4395;48.554;8.820;2023-04-06T00:11:46;15.77;;;11.77;;
8716;SDS011;4395;48.554;8.820;2023-04-06T00:13:49;36.25;;;22.13;;
8716;SDS011;4395;48.554;8.820;2023-04-06T00:15:53;20.02;;;14.35;;
8716;SDS011;4395;48.554;8.820;2023-04-06T00:17:56;12.25;;;10.30;;
8716;SDS011;4395;48.554;8.820;2023-04-06T00:19:59;9.88;;;7.97;;
8716;SDS011;4395;48.554;8.820;2023-04-06T00:22:02;10.68;;;8.38;;
8716;SDS011;4395;48.554;8.820;2023-04-06T00:24:05;10.07;;;7.68;;
8716;SDS011;4395;48.554;8.820;2023-04-06T00:26:08;10.25;;;7.65;;
8716;SDS011;4395;48.554;8.820;2023-04-06T00:28:15;11.38;;;8.43;;
8716;SDS011;4395;48.554;8.820;2023-04-06T00:30:18;9.70;;;7.30;;
8716;SDS011;4395;48.554;8.820;2023-04-06T00:32:22;7.57;;;6.55;;
8716;SDS011;4395;48.554;8.820;2023-04-06T00:34:25;8.40;;;6.80;;
8716;SDS011;4395;48.554;8.820;2023-04-06T00:36:28;9.63;;;7.15;;
8716;SDS011;4395;48.554;8.820;2023-04-06T00:38:31;9.55;;;6.70;;
8716;SDS011;4395;48.554;8.820;2023-04-06T00:40:34;8.23;;;7.15;;
8716;SDS011;4395;48.554;8.820;2023-04-06T00:42:37;14.57;;;10.73;;
8716;SDS011;4395;48.554;8.820;2023-04-06T00:44:40;14.63;;;11.55;;
8716;SDS011;4395;48.554;8.820;2023-04-06T00:46:43;10.55;;;8.82;;
8716;SDS011;4395;48.554;8.820;2023-04-06T00:48:48;9.10;;;7.70;;
8716;SDS011;4395;48.554;8.820;2023-04-06T00:50:51;8.68;;;7.10;;
8716;SDS011;4395;48.554;8.820;2023-04-06T00:52:54;8.52;;;6.35;;
8716;SDS011;4395;48.554;8.820;2023-04-06T00:55:00;8.70;;;7.20;;
8716;SDS011;4395;48.554;8.820;2023-04-06T00:57:03;8.98;;;7.30;;
8716;SDS011;4395;48.554;8.820;2023-04-06T00:59:07;8.48;;;7.57;;
8716;SDS011;4395;48.554;8.820;2023-04-06T01:01:10;7.65;;;6.40;;
8716;SDS011;4395;48.554;8.820;2023-04-06T01:03:14;8.55;;;7.43;;
8716;SDS011;4395;48.554;8.820;2023-04-06T01:05:19;7.90;;;7.15;;
8716;SDS011;4395;48.554;8.820;2023-04-06T01:07:26;9.60;;;7.05;;
8716;SDS011;4395;48.554;8.820;2023-04-06T01:09:48;8.55;;;7.75;;
8716;SDS011;4395;48.554;8.820;2023-04-06T01:11:56;7.97;;;6.25;;
8716;SDS011;4395;48.554;8.820;2023-04-06T01:14:04;9.25;;;7.22;;
8716;SDS011;4395;48.554;8.820;2023-04-06T01:16:28;8.52;;;6.97;;
8716;SDS011;4395;48.554;8.820;2023-04-06T01:18:41;8.95;;;6.97;;
8716;SDS011;4395;48.554;8.820;2023-04-06T01:20:51;9.00;;;6.90;;
8716;SDS011;4395;48.554;8.820;2023-04-06T01:22:56;8.00;;;6.43;;
8716;SDS011;4395;48.554;8.820;2023-04-06T01:25:00;9.40;;;7.38;;
8716;SDS011;4395;48.554;8.820;2023-04-06T01:27:19;8.88;;;6.50;;
8716;SDS011;4395;48.554;8.820;2023-04-06T01:29:40;10.55;;;7.25;;
8716;SDS011;4395;48.554;8.820;2023-04-06T01:31:46;8.90;;;7.05;;
8716;SDS011;4395;48.554;8.820;2023-04-06T01:33:50;7.53;;;6.82;;
8716;SDS011;4395;48.554;8.820;2023-04-06T01:35:55;7.65;;;6.85;;
8716;SDS011;4395;48.554;8.820;2023-04-06T01:38:00;7.50;;;6.70;;
8716;SDS011;4395;48.554;8.820;2023-04-06T01:40:07;7.40;;;6.70;;
8716;SDS011;4395;48.554;8.820;2023-04-06T01:42:17;7.05;;;6.35;;
8716;SDS011;4395;48.554;8.820;2023-04-06T01:44:22;7.07;;;6.25;;
8716;SDS011;4395;48.554;8.820;2023-04-06T01:46:36;8.48;;;6.72;;
8716;SDS011;4395;48.554;8.820;2023-04-06T01:48:40;9.32;;;6.35;;
8716;SDS011;4395;48.554;8.820;2023-04-06T01:51:06;11.32;;;7.75;;
8716;SDS011;4395;48.554;8.820;2023-04-06T01:53:19;9.63;;;6.75;;
8716;SDS011;4395;48.554;8.820;2023-04-06T01:55:24;9.00;;;7.22;;
8716;SDS011;4395;48.554;8.820;2023-04-06T01:57:48;7.82;;;6.63;;
8716;SDS011;4395;48.554;8.820;2023-04-06T02:00:04;8.75;;;7.30;;
8716;SDS011;4395;48.554;8.820;2023-04-06T02:02:14;10.27;;;7.68;;
8716;SDS011;4395;48.554;8.820;2023-04-06T02:04:26;10.32;;;7.55;;
8716;SDS011;4395;48.554;8.820;2023-04-06T02:06:39;8.35;;;7.38;;
8716;SDS011;4395;48.554;8.820;2023-04-06T02:08:47;9.70;;;6.80;;
8716;SDS011;4395;48.554;8.820;2023-04-06T02:10:50;9.98;;;7.63;;
8716;SDS011;4395;48.554;8.820;2023-04-06T02:13:02;9.52;;;7.13;;
8716;SDS011;4395;48.554;8.820;2023-04-06T02:15:06;7.93;;;6.85;;
8716;SDS011;4395;48.554;8.820;2023-04-06T02:17:09;8.10;;;6.55;;
8716;SDS011;4395;48.554;8.820;2023-04-06T02:19:12;7.80;;;6.60;;
8716;SDS011;4395;48.554;8.820;2023-04-06T02:21:17;8.13;;;7.18;;
8716;SDS011;4395;48.554;8.820;2023-04-06T02:23:21;9.38;;;7.80;;
8716;SDS011;4395;48.554;8.820;2023-04-06T02:25:25;13.43;;;7.50;;
8716;SDS011;4395;48.554;8.820;2023-04-06T02:27:29;8.68;;;7.68;;
8716;SDS011;4395;48.554;8.820;2023-04-06T02:29:32;7.65;;;6.85;;
8716;SDS011;4395;48.554;8.820;2023-04-06T02:31:35;8.40;;;6.47;;
8716;SDS011;4395;48.554;8.820;2023-04-06T02:33:39;9.10;;;7.03;;
8716;SDS011;4395;48.554;8.820;2023-04-06T02:35:43;7.75;;;6.97;;
8716;SDS011;4395;48.554;8.820;2023-04-06T02:37:47;8.68;;;7.70;;
8716;SDS011;4395;48.554;8.820;2023-04-06T02:39:50;7.95;;;7.05;;
8716;SDS011;4395;48.554;8.820;2023-04-06T02:41:54;8.98;;;7.07;;
8716;SDS011;4395;48.554;8.820;2023-04-06T02:43:59;7.93;;;7.13;;
8716;SDS011;4395;48.554;8.820;2023-04-06T02:46:11;8.95;;;7.75;;
8716;SDS011;4395;48.554;8.820;2023-04-06T02:48:15;8.63;;;6.85;;
8716;SDS011;4395;48.554;8.820;2023-04-06T02:50:17;8.63;;;6.28;;
8716;SDS011;4395;48.554;8.820;2023-04-06T02:52:29;8.13;;;7.07;;
8716;SDS011;4395;48.554;8.820;2023-04-06T02:54:32;9.27;;;7.15;;
8716;SDS011;4395;48.554;8.820;2023-04-06T02:56:36;8.40;;;7.50;;
8716;SDS011;4395;48.554;8.820;2023-04-06T02:58:41;8.27;;;6.72;;
8716;SDS011;4395;48.554;8.820;2023-04-06T03:00:44;8.77;;;7.85;;
8716;SDS011;4395;48.554;8.820;2023-04-06T03:02:47;9.00;;;7.43;;
8716;SDS011;4395;48.554;8.820;2023-04-06T03:04:52;8.23;;;6.82;;
8716;SDS011;4395;48.554;8.820;2023-04-06T03:07:00;8.18;;;6.65;;
8716;SDS011;4395;48.554;8.820;2023-04-06T03:09:09;8.32;;;7.43;;
8716;SDS011;4395;48.554;8.820;2023-04-06T03:11:15;7.63;;;6.82;;
8716;SDS011;4395;48.554;8.820;2023-04-06T03:13:19;10.68;;;7.65;;
8716;SDS011;4395;48.554;8.820;2023-04-06T03:15:32;9.25;;;7.07;;
8716;SDS011;4395;48.554;8.820;2023-04-06T03:17:45;7.93;;;6.57;;
8716;SDS011;4395;48.554;8.820;2023-04-06T03:20:11;12.85;;;6.85;;
8716;SDS011;4395;48.554;8.820;2023-04-06T03:22:15;9.57;;;7.00;;
8716;SDS011;4395;48.554;8.820;2023-04-06T03:24:21;9.15;;;6.95;;
8716;SDS011;4395;48.554;8.820;2023-04-06T03:26:24;8.82;;;7.68;;
8716;SDS011;4395;48.554;8.820;2023-04-06T03:28:27;8.80;;;7.35;;
8716;SDS011;4395;48.554;8.820;2023-04-06T03:30:34;9.77;;;6.63;;
8716;SDS011;4395;48.554;8.820;2023-04-06T03:32:39;8.80;;;7.45;;
8716;SDS011;4395;48.554;8.820;2023-04-06T03:34:41;8.38;;;7.10;;
8716;SDS011;4395;48.554;8.820;2023-04-06T03:36:44;9.75;;;7.47;;
8716;SDS011;4395;48.554;8.820;2023-04-06T03:39:01;11.73;;;8.90;;
8716;SDS011;4395;48.554;8.820;2023-04-06T03:41:07;11.30;;;8.20;;
8716;SDS011;4395;48.554;8.820;2023-04-06T03:43:10;10.68;;;7.90;;
8716;SDS011;4395;48.554;8.820;2023-04-06T03:45:14;9.68;;;7.85;;
8716;SDS011;4395;48.554;8.820;2023-04-06T03:47:24;9.50;;;7.25;;
8716;SDS011;4395;48.554;8.820;2023-04-06T03:49:31;11.48;;;7.82;;
8716;SDS011;4395;48.554;8.820;2023-04-06T03:51:34;9.60;;;7.22;;
8716;SDS011;4395;48.554;8.820;2023-04-06T03:53:37;9.50;;;7.20;;
8716;SDS011;4395;48.554;8.820;2023-04-06T03:55:40;13.77;;;8.30;;
8716;SDS011;4395;48.554;8.820;2023-04-06T03:57:43;9.85;;;8.13;;
8716;SDS011;4395;48.554;8.820;2023-04-06T03:59:46;11.43;;;7.65;;
8716;SDS011;4395;48.554;8.820;2023-04-06T04:01:49;10.88;;;8.40;;
8716;SDS011;4395;48.554;8.820;2023-04-06T04:03:53;8.07;;;7.28;;
8716;SDS011;4395;48.554;8.820;2023-04-06T04:05:56;14.70;;;8.70;;
8716;SDS011;4395;48.554;8.820;2023-04-06T04:08:00;10.45;;;8.18;;
8716;SDS011;4395;48.554;8.820;2023-04-06T04:10:03;12.05;;;8.02;;
8716;SDS011;4395;48.554;8.820;2023-04-06T04:12:06;14.68;;;8.80;;
8716;SDS011;4395;48.554;8.820;2023-04-06T04:14:09;12.10;;;8.20;;
8716;SDS011;4395;48.554;8.820;2023-04-06T04:16:12;11.07;;;7.78;;
8716;SDS011;4395;48.554;8.820;2023-04-06T04:18:15;11.52;;;8.40;;
8716;SDS011;4395;48.554;8.820;2023-04-06T04:20:20;10.25;;;8.60;;
8716;SDS011;4395;48.554;8.820;2023-04-06T04:22:23;10.70;;;8.15;;
8716;SDS011;4395;48.554;8.820;2023-04-06T04:24:26;9.93;;;8.45;;
8716;SDS011;4395;48.554;8.820;2023-04-06T04:26:30;10.90;;;7.95;;
8716;SDS011;4395;48.554;8.820;2023-04-06T04:28:32;14.95;;;9.05;;
8716;SDS011;4395;48.554;8.820;2023-04-06T04:30:35;9.60;;;8.32;;
8716;SDS011;4395;48.554;8.820;2023-04-06T04:32:43;10.40;;;8.30;;
8716;SDS011;4395;48.554;8.820;2023-04-06T04:34:46;10.10;;;8.82;;
8716;SDS011;4395;48.554;8.820;2023-04-06T04:37:05;12.05;;;9.52;;
8716;SDS011;4395;48.554;8.820;2023-04-06T04:39:28;17.30;;;9.45;;
8716;SDS011;4395;48.554;8.820;2023-04-06T04:41:36;14.18;;;10.52;;
8716;SDS011;4395;48.554;8.820;2023-04-06T04:43:42;16.42;;;11.15;;
8716;SDS011;4395;48.554;8.820;2023-04-06T04:45:47;19.10;;;10.75;;
8716;SDS011;4395;48.554;8.820;2023-04-06T04:48:04;16.15;;;10.68;;
8716;SDS011;4395;48.554;8.820;2023-04-06T04:50:19;20.02;;;12.18;;
8716;SDS011;4395;48.554;8.820;2023-04-06T04:52:27;15.18;;;10.90;;
8716;SDS011;4395;48.554;8.820;2023-04-06T04:54:50;19.98;;;11.88;;
8716;SDS011;4395;48.554;8.820;2023-04-06T04:56:58;18.33;;;11.75;;
8716;SDS011;4395;48.554;8.820;2023-04-06T04:59:13;19.08;;;12.93;;
8716;SDS011;4395;48.554;8.820;2023-04-06T05:01:23;18.48;;;11.98;;
8716;SDS011;4395;48.554;8.820;2023-04-06T05:03:26;16.75;;;11.90;;
8716;SDS011;4395;48.554;8.820;2023-04-06T05:05:35;16.55;;;11.90;;
8716;SDS011;4395;48.554;8.820;2023-04-06T05:07:41;18.77;;;11.73;;
8716;SDS011;4395;48.554;8.820;2023-04-06T05:09:51;18.23;;;12.02;;
8716;SDS011;4395;48.554;8.820;2023-04-06T05:11:55;13.52;;;10.77;;
8716;SDS011;4395;48.554;8.820;2023-04-06T05:13:59;20.40;;;11.90;;
8716;SDS011;4395;48.554;8.820;2023-04-06T05:16:03;15.93;;;12.02;;
8716;SDS011;4395;48.554;8.820;2023-04-06T05:18:08;13.77;;;10.98;;
8716;SDS011;4395;48.554;8.820;2023-04-06T05:20:11;12.63;;;10.82;;
8716;SDS011;4395;48.554;8.820;2023-04-06T05:22:20;13.40;;;9.43;;
8716;SDS011;4395;48.554;8.820;2023-04-06T05:24:33;22.85;;;13.60;;
8716;SDS011;4395;48.554;8.820;2023-04-06T05:26:40;23.95;;;11.70;;
8716;SDS011;4395;48.554;8.820;2023-04-06T05:28:52;18.67;;;12.93;;
8716;SDS011;4395;48.554;8.820;2023-04-06T05:30:56;15.40;;;10.68;;
8716;SDS011;4395;48.554;8.820;2023-04-06T05:33:03;14.38;;;9.63;;
8716;SDS011;4395;48.554;8.820;2023-04-06T05:35:19;10.90;;;8.95;;
8716;SDS011;4395;48.554;8.820;2023-04-06T05:37:26;10.48;;;8.63;;
8716;SDS011;4395;48.554;8.820;2023-04-06T05:39:29;8.55;;;7.47;;
8716;SDS011;4395;48.554;8.820;2023-04-06T05:41:34;8.70;;;6.78;;
8716;SDS011;4395;48.554;8.820;2023-04-06T05:43:38;11.25;;;7.47;;
8716;SDS011;4395;48.554;8.820;2023-04-06T05:45:41;12.88;;;7.63;;
8716;SDS011;4395;48.554;8.820;2023-04-06T05:47:46;8.35;;;7.53;;
8716;SDS011;4395;48.554;8.820;2023-04-06T05:49:56;11.27;;;8.93;;
8716;SDS011;4395;48.554;8.820;2023-04-06T05:52:11;8.73;;;7.82;;
8716;SDS011;4395;48.554;8.820;2023-04-06T05:54:18;8.85;;;7.90;;
8716;SDS011;4395;48.554;8.820;2023-04-06T05:56:21;8.90;;;8.00;;
8716;SDS011;4395;48.554;8.820;2023-04-06T05:58:26;10.75;;;7.45;;
8716;SDS011;4395;48.554;8.820;2023-04-06T06:00:30;10.80;;;8.40;;
8716;SDS011;4395;48.554;8.820;2023-04-06T06:02:38;8.68;;;7.65;;
8716;SDS011;4395;48.554;8.820;2023-04-06T06:04:49;10.43;;;8.63;;
8716;SDS011;4395;48.554;8.820;2023-04-06T06:06:53;13.20;;;9.32;;
8716;SDS011;4395;48.554;8.820;2023-04-06T06:09:01;14.40;;;9.40;;
8716;SDS011;4395;48.554;8.820;2023-04-06T06:11:10;18.33;;;9.27;;
8716;SDS011;4395;48.554;8.820;2023-04-06T06:13:13;12.00;;;9.10;;
8716;SDS011;4395;48.554;8.820;2023-04-06T06:15:18;14.50;;;9.45;;
8716;SDS011;4395;48.554;8.820;2023-04-06T06:17:22;11.05;;;9.27;;
8716;SDS011;4395;48.554;8.820;2023-04-06T06:19:25;13.73;;;9.32;;
8716;SDS011;4395;48.554;8.820;2023-04-06T06:21:31;16.35;;;11.13;;
8716;SDS011;4395;48.554;8.820;2023-04-06T06:23:34;16.00;;;11.00;;
8716;SDS011;4395;48.554;8.820;2023-04-06T06:25:37;17.80;;;12.50;;
8716;SDS011;4395;48.554;8.820;2023-04-06T06:27:41;19.73;;;13.65;;
8716;SDS011;4395;48.554;8.820;2023-04-06T06:29:44;17.90;;;11.95;;
8716;SDS011;4395;48.554;8.820;2023-04-06T06:31:49;13.63;;;11.05;;
8716;SDS011;4395;48.554;8.820;2023-04-06T06:33:52;17.83;;;9.65;;
8716;SDS011;4395;48.554;8.820;2023-04-06T06:35:55;10.38;;;8.25;;
8716;SDS011;4395;48.554;8.820;2023-04-06T06:37:58;11.70;;;9.57;;
8716;SDS011;4395;48.554;8.820;2023-04-06T06:40:01;8.88;;;7.90;;
8716;SDS011;4395;48.554;8.820;2023-04-06T06:42:06;11.32;;;9.10;;
8716;SDS011;4395;48.554;8.820;2023-04-06T06:44:38;11.30;;;7.68;;
8716;SDS011;4395;48.554;8.820;2023-04-06T06:46:41;19.20;;;8.35;;
8716;SDS011;4395;48.554;8.820;2023-04-06T06:48:46;10.30;;;7.35;;
8716;SDS011;4395;48.554;8.820;2023-04-06T06:50:49;13.25;;;7.40;;
8716;SDS011;4395;48.554;8.820;2023-04-06T06:52:51;13.60;;;7.85;;
8716;SDS011;4395;48.554;8.820;2023-04-06T06:54:54;17.52;;;7.78;;
8716;SDS011;4395;48.554;8.820;2023-04-06T06:56:58;15.00;;;8.00;;
8716;SDS011;4395;48.554;8.820;2023-04-06T06:59:01;10.00;;;7.00;;
8716;SDS011;4395;48.554;8.820;2023-04-06T07:01:04;14.63;;;8.00;;
8716;SDS011;4395;48.554;8.820;2023-04-06T07:03:08;13.05;;;8.02;;
8716;SDS011;4395;48.554;8.820;2023-04-06T07:05:13;9.80;;;6.95;;
8716;SDS011;4395;48.554;8.820;2023-04-06T07:07:29;13.00;;;7.35;;
8716;SDS011;4395;48.554;8.820;2023-04-06T07:09:33;11.25;;;6.93;;
8716;SDS011;4395;48.554;8.820;2023-04-06T07:11:35;9.80;;;7.68;;
8716;SDS011;4395;48.554;8.820;2023-04-06T07:13:39;9.02;;;7.20;;
8716;SDS011;4395;48.554;8.820;2023-04-06T07:15:42;8.90;;;7.50;;
8716;SDS011;4395;48.554;8.820;2023-04-06T07:17:46;10.98;;;7.53;;
8716;SDS011;4395;48.554;8.820;2023-04-06T07:19:49;8.57;;;7.53;;
8716;SDS011;4395;48.554;8.820;2023-04-06T07:21:53;9.98;;;6.78;;
8716;SDS011;4395;48.554;8.820;2023-04-06T07:23:57;10.57;;;7.03;;
8716;SDS011;4395;48.554;8.820;2023-04-06T07:26:00;8.52;;;6.55;;
8716;SDS011;4395;48.554;8.820;2023-04-06T07:28:04;11.13;;;6.97;;
8716;SDS011;4395;48.554;8.820;2023-04-06T07:30:07;7.80;;;7.03;;
8716;SDS011;4395;48.554;8.820;2023-04-06T07:32:11;10.70;;;7.80;;
8716;SDS011;4395;48.554;8.820;2023-04-06T07:34:14;12.20;;;7.93;;
8716;SDS011;4395;48.554;8.820;2023-04-06T07:36:17;9.15;;;7.25;;
8716;SDS011;4395;48.554;8.820;2023-04-06T07:38:22;12.52;;;7.95;;
8716;SDS011;4395;48.554;8.820;2023-04-06T07:40:25;9.55;;;7.20;;
8716;SDS011;4395;48.554;8.820;2023-04-06T07:42:30;10.80;;;8.02;;
8716;SDS011;4395;48.554;8.820;2023-04-06T07:44:34;7.88;;;7.05;;
8716;SDS011;4395;48.554;8.820;2023-04-06T07:46:37;8.25;;;7.38;;
8716;SDS011;4395;48.554;8.820;2023-04-06T07:48:40;8.93;;;7.97;;
8716;SDS011;4395;48.554;8.820;2023-04-06T07:50:43;11.15;;;8.43;;
8716;SDS011;4395;48.554;8.820;2023-04-06T07:52:46;11.20;;;7.57;;
8716;SDS011;4395;48.554;8.820;2023-04-06T07:54:50;8.93;;;6.80;;
8716;SDS011;4395;48.554;8.820;2023-04-06T07:56:53;7.63;;;6.35;;
8716;SDS011;4395;48.554;8.820;2023-04-06T07:58:56;7.93;;;7.05;;
8716;SDS011;4395;48.554;8.820;2023-04-06T08:00:59;10.05;;;7.07;;
8716;SDS011;4395;48.554;8.820;2023-04-06T08:03:03;7.95;;;7.15;;
8716;SDS011;4395;48.554;8.820;2023-04-06T08:05:06;10.15;;;7.10;;
8716;SDS011;4395;48.554;8.820;2023-04-06T08:07:09;8.05;;;7.10;;
8716;SDS011;4395;48.554;8.820;2023-04-06T08:09:12;9.85;;;7.32;;
8716;SDS011;4395;48.554;8.820;2023-04-06T08:11:16;8.18;;;7.40;;
8716;SDS011;4395;48.554;8.820;2023-04-06T08:13:19;10.70;;;7.55;;
8716;SDS011;4395;48.554;8.820;2023-04-06T08:15:22;9.77;;;7.40;;
8716;SDS011;4395;48.554;8.820;2023-04-06T08:17:25;9.43;;;7.38;;
8716;SDS011;4395;48.554;8.820;2023-04-06T08:19:31;9.65;;;8.05;;
8716;SDS011;4395;48.554;8.820;2023-04-06T08:21:34;11.90;;;8.85;;
8716;SDS011;4395;48.554;8.820;2023-04-06T08:23:37;11.07;;;7.50;;
8716;SDS011;4395;48.554;8.820;2023-04-06T08:25:40;10.60;;;7.90;;
8716;SDS011;4395;48.554;8.820;2023-04-06T08:27:45;10.73;;;8.48;;
8716;SDS011;4395;48.554;8.820;2023-04-06T08:29:49;14.70;;;8.60;;
8716;SDS011;4395;48.554;8.820;2023-04-06T08:31:52;13.48;;;8.68;;
8716;SDS011;4395;48.554;8.820;2023-04-06T08:33:56;9.48;;;7.70;;
8716;SDS011;4395;48.554;8.820;2023-04-06T08:35:59;11.25;;;7.90;;
8716;SDS011;4395;48.554;8.820;2023-04-06T08:38:02;9.27;;;7.90;;
8716;SDS011;4395;48.554;8.820;2023-04-06T08:40:05;10.65;;;8.57;;
8716;SDS011;4395;48.554;8.820;2023-04-06T08:42:10;10.40;;;8.23;;
8716;SDS011;4395;48.554;8.820;2023-04-06T08:44:20;15.55;;;7.85;;
8716;SDS011;4395;48.554;8.820;2023-04-06T08:46:23;10.82;;;8.63;;
8716;SDS011;4395;48.554;8.820;2023-04-06T08:48:30;9.48;;;8.52;;
8716;SDS011;4395;48.554;8.820;2023-04-06T08:50:35;12.27;;;9.23;;
8716;SDS011;4395;48.554;8.820;2023-04-06T08:52:41;14.50;;;8.93;;
8716;SDS011;4395;48.554;8.820;2023-04-06T08:54:46;10.30;;;8.52;;
8716;SDS011;4395;48.554;8.820;2023-04-06T08:56:49;10.30;;;8.50;;
8716;SDS011;4395;48.554;8.820;2023-04-06T08:58:54;10.52;;;8.77;;
8716;SDS011;4395;48.554;8.820;2023-04-06T09:00:59;9.38;;;8.30;;
8716;SDS011;4395;48.554;8.820;2023-04-06T09:03:03;9.25;;;8.35;;
8716;SDS011;4395;48.554;8.820;2023-04-06T09:05:08;10.70;;;8.35;;
8716;SDS011;4395;48.554;8.820;2023-04-06T09:07:11;10.35;;;9.07;;
8716;SDS011;4395;48.554;8.820;2023-04-06T09:09:14;11.80;;;8.75;;
8716;SDS011;4395;48.554;8.820;2023-04-06T09:11:17;9.07;;;7.97;;
8716;SDS011;4395;48.554;8.820;2023-04-06T09:13:22;11.95;;;8.80;;
8716;SDS011;4395;48.554;8.820;2023-04-06T09:15:24;13.38;;;9.52;;
8716;SDS011;4395;48.554;8.820;2023-04-06T09:17:30;11.07;;;9.02;;
8716;SDS011;4395;48.554;8.820;2023-04-06T09:19:44;10.13;;;7.80;;
8716;SDS011;4395;48.554;8.820;2023-04-06T09:21:47;10.93;;;9.30;;
8716;SDS011;4395;48.554;8.820;2023-04-06T09:23:58;12.00;;;9.32;;
8716;SDS011;4395;48.554;8.820;2023-04-06T09:26:05;9.75;;;8.63;;
8716;SDS011;4395;48.554;8.820;2023-04-06T09:28:09;10.13;;;8.60;;
8716;SDS011;4395;48.554;8.820;2023-04-06T09:30:12;9.40;;;8.30;;
8716;SDS011;4395;48.554;8.820;2023-04-06T09:32:17;15.48;;;9.35;;
8716;SDS011;4395;48.554;8.820;2023-04-06T09:34:22;9.85;;;8.25;;
8716;SDS011;4395;48.554;8.820;2023-04-06T09:36:31;14.45;;;8.73;;
8716;SDS011;4395;48.554;8.820;2023-04-06T09:38:36;11.77;;;9.02;;
8716;SDS011;4395;48.554;8.820;2023-04-06T09:40:47;11.65;;;8.90;;
8716;SDS011;4395;48.554;8.820;2023-04-06T09:43:01;9.48;;;8.32;;
8716;SDS011;4395;48.554;8.820;2023-04-06T09:45:08;9.65;;;8.25;;
8716;SDS011;4395;48.554;8.820;2023-04-06T09:47:12;9.60;;;8.63;;
8716;SDS011;4395;48.554;8.820;2023-04-06T09:49:16;10.35;;;8.02;;
8716;SDS011;4395;48.554;8.820;2023-04-06T09:51:22;10.93;;;8.68;;
8716;SDS011;4395;48.554;8.820;2023-04-06T09:53:26;9.93;;;9.02;;
8716;SDS011;4395;48.554;8.820;2023-04-06T09:55:34;14.20;;;9.50;;
8716;SDS011;4395;48.554;8.820;2023-04-06T09:57:43;10.83;;;8.13;;
8716;SDS011;4395;48.554;8.820;2023-04-06T09:59:55;10.83;;;8.37;;
8716;SDS011;4395;48.554;8.820;2023-04-06T10:02:00;11.13;;;8.50;;
8716;SDS011;4395;48.554;8.820;2023-04-06T10:04:10;10.63;;;9.00;;
8716;SDS011;4395;48.554;8.820;2023-04-06T10:06:25;13.20;;;8.67;;
8716;SDS011;4395;48.554;8.820;2023-04-06T10:08:31;9.00;;;8.10;;
8716;SDS011;4395;48.554;8.820;2023-04-06T10:10:38;9.83;;;8.20;;
8716;SDS011;4395;48.554;8.820;2023-04-06T10:12:40;12.90;;;9.63;;
8716;SDS011;4395;48.554;8.820;2023-04-06T10:14:45;12.67;;;9.30;;
8716;SDS011;4395;48.554;8.820;2023-04-06T10:16:47;9.37;;;8.30;;
8716;SDS011;4395;48.554;8.820;2023-04-06T10:18:52;8.80;;;7.90;;
8716;SDS011;4395;48.554;8.820;2023-04-06T10:21:00;8.70;;;7.87;;
8716;SDS011;4395;48.554;8.820;2023-04-06T10:23:11;12.70;;;10.03;;
8716;SDS011;4395;48.554;8.820;2023-04-06T10:25:17;10.50;;;7.93;;
8716;SDS011;4395;48.554;8.820;2023-04-06T10:27:28;9.13;;;7.63;;
8716;SDS011;4395;48.554;8.820;2023-04-06T10:29:41;8.40;;;7.03;;
8716;SDS011;4395;48.554;8.820;2023-04-06T10:31:46;6.03;;;5.50;;
8716;SDS011;4395;48.554;8.820;2023-04-06T10:33:54;7.03;;;6.23;;
8716;SDS011;4395;48.554;8.820;2023-04-06T10:35:58;8.17;;;6.40;;
8716;SDS011;4395;48.554;8.820;2023-04-06T10:38:13;7.70;;;6.90;;
8716;SDS011;4395;48.554;8.820;2023-04-06T10:40:20;7.50;;;6.63;;
8716;SDS011;4395;48.554;8.820;2023-04-06T10:42:24;7.93;;;6.20;;
8716;SDS011;4395;48.554;8.820;2023-04-06T10:44:41;7.13;;;6.40;;
8716;SDS011;4395;48.554;8.820;2023-04-06T10:46:52;7.80;;;7.00;;
8716;SDS011;4395;48.554;8.820;2023-04-06T10:48:56;7.90;;;7.10;;
8716;SDS011;4395;48.554;8.820;2023-04-06T10:50:59;11.53;;;7.03;;
8716;SDS011;4395;48.554;8.820;2023-04-06T10:53:02;13.43;;;10.27;;
8716;SDS011;4395;48.554;8.820;2023-04-06T10:55:07;8.87;;;7.97;;
8716;SDS011;4395;48.554;8.820;2023-04-06T10:57:12;7.73;;;6.80;;
8716;SDS011;4395;48.554;8.820;2023-04-06T10:59:18;8.87;;;7.47;;
8716;SDS011;4395;48.554;8.820;2023-04-06T11:01:21;9.07;;;7.47;;
8716;SDS011;4395;48.554;8.820;2023-04-06T11:03:25;8.27;;;7.03;;
8716;SDS011;4395;48.554;8.820;2023-04-06T11:05:28;6.73;;;6.10;;
8716;SDS011;4395;48.554;8.820;2023-04-06T11:07:32;7.83;;;6.90;;
8716;SDS011;4395;48.554;8.820;2023-04-06T11:09:36;6.60;;;6.00;;
8716;SDS011;4395;48.554;8.820;2023-04-06T11:11:40;7.77;;;6.30;;
8716;SDS011;4395;48.554;8.820;2023-04-06T11:13:44;7.10;;;6.40;;
8716;SDS011;4395;48.554;8.820;2023-04-06T11:15:47;8.30;;;7.23;;
8716;SDS011;4395;48.554;8.820;2023-04-06T11:17:50;8.23;;;7.00;;
8716;SDS011;4395;48.554;8.820;2023-04-06T11:19:54;7.57;;;6.50;;
8716;SDS011;4395;48.554;8.820;2023-04-06T11:22:05;8.03;;;6.43;;
8716;SDS011;4395;48.554;8.820;2023-04-06T11:24:10;7.17;;;6.47;;
8716;SDS011;4395;48.554;8.820;2023-04-06T11:26:14;6.87;;;6.27;;
8716;SDS011;4395;48.554;8.820;2023-04-06T11:28:18;6.70;;;6.10;;
8716;SDS011;4395;48.554;8.820;2023-04-06T11:30:21;7.00;;;6.37;;
8716;SDS011;4395;48.554;8.820;2023-04-06T11:32:24;6.80;;;6.10;;
8716;SDS011;4395;48.554;8.820;2023-04-06T11:34:28;6.97;;;6.27;;
8716;SDS011;4395;48.554;8.820;2023-04-06T11:36:32;8.40;;;6.43;;
8716;SDS011;4395;48.554;8.820;2023-04-06T11:38:38;7.57;;;6.73;;
8716;SDS011;4395;48.554;8.820;2023-04-06T11:40:41;8.50;;;6.87;;
8716;SDS011;4395;48.554;8.820;2023-04-06T11:42:44;11.20;;;9.33;;
8716;SDS011;4395;48.554;8.820;2023-04-06T11:44:56;8.33;;;6.33;;
8716;SDS011;4395;48.554;8.820;2023-04-06T11:47:00;8.67;;;6.90;;
8716;SDS011;4395;48.554;8.820;2023-04-06T11:49:03;7.37;;;6.57;;
8716;SDS011;4395;48.554;8.820;2023-04-06T11:51:06;6.90;;;6.20;;
8716;SDS011;4395;48.554;8.820;2023-04-06T11:53:09;7.23;;;6.53;;
8716;SDS011;4395;48.554;8.820;2023-04-06T11:55:13;7.17;;;5.93;;
8716;SDS011;4395;48.554;8.820;2023-04-06T11:57:17;6.13;;;5.63;;
8716;SDS011;4395;48.554;8.820;2023-04-06T11:59:21;5.77;;;5.27;;
8716;SDS011;4395;48.554;8.820;2023-04-06T12:01:25;6.30;;;5.70;;
8716;SDS011;4395;48.554;8.820;2023-04-06T12:03:29;6.57;;;5.57;;
8716;SDS011;4395;48.554;8.820;2023-04-06T12:05:32;6.23;;;5.53;;
8716;SDS011;4395;48.554;8.820;2023-04-06T12:07:36;6.60;;;5.73;;
8716;SDS011;4395;48.554;8.820;2023-04-06T12:09:39;6.80;;;6.20;;
8716;SDS011;4395;48.554;8.820;2023-04-06T12:11:41;7.33;;;6.03;;
8716;SDS011;4395;48.554;8.820;2023-04-06T12:13:44;6.30;;;5.57;;
8716;SDS011;4395;48.554;8.820;2023-04-06T12:15:47;6.10;;;5.50;;
8716;SDS011;4395;48.554;8.820;2023-04-06T12:17:52;7.20;;;6.57;;
8716;SDS011;4395;48.554;8.820;2023-04-06T12:19:55;6.93;;;6.23;;
8716;SDS011;4395;48.554;8.820;2023-04-06T12:22:09;6.97;;;5.73;;
8716;SDS011;4395;48.554;8.820;2023-04-06T12:24:12;7.37;;;6.67;;
8716;SDS011;4395;48.554;8.820;2023-04-06T12:26:15;6.53;;;5.93;;
8716;SDS011;4395;48.554;8.820;2023-04-06T12:28:18;6.50;;;5.90;;
8716;SDS011;4395;48.554;8.820;2023-04-06T12:30:24;8.33;;;6.00;;
8716;SDS011;4395;48.554;8.820;2023-04-06T12:32:27;7.83;;;7.03;;
8716;SDS011;4395;48.554;8.820;2023-04-06T12:34:31;9.73;;;7.17;;
8716;SDS011;4395;48.554;8.820;2023-04-06T12:36:34;8.43;;;7.63;;
8716;SDS011;4395;48.554;8.820;2023-04-06T12:38:38;8.47;;;7.47;;
8716;SDS011;4395;48.554;8.820;2023-04-06T12:40:42;7.60;;;6.77;;
8716;SDS011;4395;48.554;8.820;2023-04-06T12:42:45;7.37;;;6.47;;
8716;SDS011;4395;48.554;8.820;2023-04-06T12:44:48;7.50;;;6.80;;
8716;SDS011;4395;48.554;8.820;2023-04-06T12:46:51;7.40;;;6.37;;
8716;SDS011;4395;48.554;8.820;2023-04-06T12:48:54;7.40;;;6.67;;
8716;SDS011;4395;48.554;8.820;2023-04-06T12:50:59;10.30;;;9.20;;
8716;SDS011;4395;48.554;8.820;2023-04-06T12:53:03;7.47;;;6.77;;
8716;SDS011;4395;48.554;8.820;2023-04-06T12:55:07;8.57;;;7.10;;